sensor_id;sensor_type;location;lat;lon;timestamp;pressure;altitude;pressure_sealevel;temperature;humidity
12626;BME280;6378;42.684;23.372;2023-07-24T00:02:23;95301.63;;;23.18;100.00
12626;BME280;6378;42.684;23.372;2023-07-24T00:04:49;95305.25;;;23.15;100.00
12626;BME280;6378;42.684;23.372;2023-07-24T00:07:14;95298.91;;;23.18;100.00
12626;BME280;6378;42.684;23.372;2023-07-24T00:09:40;95303.59;;;23.18;100.00
12626;BME280;6378;42.684;23.372;2023-07-24T00:12:06;95296.28;;;23.11;100.00
12626;BME280;6378;42.684;23.372;2023-07-24T00:14:31;95298.06;;;22.98;100.00
12626;BME280;6378;42.684;23.372;2023-07-24T00:16:56;95294.63;;;22.94;100.00
12626;BME280;6378;42.684;23.372;2023-07-24T00:19:22;95297.53;;;22.83;100.00
12626;BME280;6378;42.684;23.372;2023-07-24T00:21:47;95296.72;;;22.86;100.00
12626;BME280;6378;42.684;23.372;2023-07-24T00:24:13;95296.81;;;22.79;100.00
12626;BME280;6378;42.684;23.372;2023-07-24T00:26:38;95302.44;;;22.72;100.00
12626;BME280;6378;42.684;23.372;2023-07-24T00:29:03;95311.88;;;22.68;100.00
12626;BME280;6378;42.684;23.372;2023-07-24T00:31:29;95307.16;;;22.68;100.00
12626;BME280;6378;42.684;23.372;2023-07-24T00:33:54;95282.81;;;22.47;100.00
12626;BME280;6378;42.684;23.372;2023-07-24T00:36:19;95282.91;;;22.67;100.00
12626;BME280;6378;42.684;23.372;2023-07-24T00:38:45;95296.13;;;22.75;100.00
12626;BME280;6378;42.684;23.372;2023-07-24T00:41:10;95292.19;;;22.76;100.00
12626;BME280;6378;42.684;23.372;2023-07-24T00:43:35;95292.06;;;22.57;100.00
12626;BME280;6378;42.684;23.372;2023-07-24T00:46:02;95293.31;;;22.52;100.00
12626;BME280;6378;42.684;23.372;2023-07-24T00:48:27;95291.84;;;22.48;100.00
12626;BME280;6378;42.684;23.372;2023-07-24T00:50:53;95293.31;;;22.52;100.00
12626;BME280;6378;42.684;23.372;2023-07-24T00:53:19;95296.44;;;22.27;100.00
12626;BME280;6378;42.684;23.372;2023-07-24T00:55:45;95296.91;;;22.22;100.00
12626;BME280;6378;42.684;23.372;2023-07-24T00:58:11;95295.59;;;22.03;100.00
12626;BME280;6378;42.684;23.372;2023-07-24T01:00:39;95297.91;;;22.05;100.00
12626;BME280;6378;42.684;23.372;2023-07-24T01:03:05;95289.28;;;22.07;100.00
12626;BME280;6378;42.684;23.372;2023-07-24T01:05:31;95294.81;;;22.03;100.00
12626;BME280;6378;42.684;23.372;2023-07-24T01:07:56;95294.84;;;21.99;100.00
12626;BME280;6378;42.684;23.372;2023-07-24T01:10:22;95287.78;;;22.02;100.00
12626;BME280;6378;42.684;23.372;2023-07-24T01:15:36;95295.16;;;21.75;100.00
12626;BME280;6378;42.684;23.372;2023-07-24T01:18:10;95270.13;;;21.73;100.00
12626;BME280;6378;42.684;23.372;2023-07-24T01:20:39;95285.81;;;22.02;100.00
12626;BME280;6378;42.684;23.372;2023-07-24T01:25:58;95294.28;;;21.81;100.00
12626;BME280;6378;42.684;23.372;2023-07-24T01:28:25;95285.72;;;21.79;100.00
12626;BME280;6378;42.684;23.372;2023-07-24T01:30:51;95287.31;;;22.07;100.00
12626;BME280;6378;42.684;23.372;2023-07-24T01:33:17;95260.38;;;22.02;100.00
12626;BME280;6378;42.684;23.372;2023-07-24T01:35:43;95203.88;;;21.51;100.00
12626;BME280;6378;42.684;23.372;2023-07-24T01:38:14;95271.41;;;21.98;100.00
12626;BME280;6378;42.684;23.372;2023-07-24T01:40:40;95278.84;;;21.98;100.00
12626;BME280;6378;42.684;23.372;2023-07-24T01:43:06;95270.81;;;21.80;100.00
12626;BME280;6378;42.684;23.372;2023-07-24T01:45:31;95285.72;;;21.79;100.00
12626;BME280;6378;42.684;23.372;2023-07-24T01:47:58;95297.75;;;21.85;100.00
12626;BME280;6378;42.684;23.372;2023-07-24T01:50:23;95310.06;;;21.70;100.00
12626;BME280;6378;42.684;23.372;2023-07-24T01:52:48;95313.69;;;21.64;100.00
12626;BME280;6378;42.684;23.372;2023-07-24T01:55:14;95314.47;;;21.64;100.00
12626;BME280;6378;42.684;23.372;2023-07-24T01:57:39;95298.50;;;21.55;100.00
12626;BME280;6378;42.684;23.372;2023-07-24T02:00:05;95292.19;;;21.28;100.00
12626;BME280;6378;42.684;23.372;2023-07-24T02:02:31;95292.13;;;21.32;100.00
12626;BME280;6378;42.684;23.372;2023-07-24T02:04:56;95296.91;;;21.24;100.00
12626;BME280;6378;42.684;23.372;2023-07-24T02:07:22;95289.41;;;21.32;100.00
12626;BME280;6378;42.684;23.372;2023-07-24T02:09:47;95299.25;;;21.26;100.00
12626;BME280;6378;42.684;23.372;2023-07-24T02:12:13;95293.88;;;21.15;100.00
12626;BME280;6378;42.684;23.372;2023-07-24T02:14:38;95292.28;;;21.17;100.00
12626;BME280;6378;42.684;23.372;2023-07-24T02:17:04;95295.84;;;21.11;100.00
12626;BME280;6378;42.684;23.372;2023-07-24T02:19:29;95288.00;;;21.13;100.00
12626;BME280;6378;42.684;23.372;2023-07-24T02:21:54;95268.50;;;21.11;100.00
12626;BME280;6378;42.684;23.372;2023-07-24T02:24:20;95295.34;;;21.23;100.00
12626;BME280;6378;42.684;23.372;2023-07-24T02:26:45;95291.13;;;21.11;100.00
12626;BME280;6378;42.684;23.372;2023-07-24T02:29:11;95289.53;;;21.17;100.00
12626;BME280;6378;42.684;23.372;2023-07-24T02:31:36;95282.50;;;21.16;100.00
12626;BME280;6378;42.684;23.372;2023-07-24T02:34:01;95288.75;;;21.21;100.00
12626;BME280;6378;42.684;23.372;2023-07-24T02:36:27;95285.53;;;21.29;100.00
12626;BME280;6378;42.684;23.372;2023-07-24T02:38:52;95283.84;;;21.39;100.00
12626;BME280;6378;42.684;23.372;2023-07-24T02:41:18;95282.50;;;21.16;100.00
12626;BME280;6378;42.684;23.372;2023-07-24T02:43:43;95287.47;;;21.29;100.00
12626;BME280;6378;42.684;23.372;2023-07-24T02:46:09;95278.78;;;21.37;100.00
12626;BME280;6378;42.684;23.372;2023-07-24T02:48:34;95257.94;;;21.09;100.00
12626;BME280;6378;42.684;23.372;2023-07-24T02:50:59;95283.72;;;21.15;100.00
12626;BME280;6378;42.684;23.372;2023-07-24T02:53:25;95287.28;;;21.09;100.00
12626;BME280;6378;42.684;23.372;2023-07-24T02:55:50;95285.38;;;21.43;100.00
12626;BME280;6378;42.684;23.372;2023-07-24T02:58:16;95288.16;;;21.40;100.00
12626;BME280;6378;42.684;23.372;2023-07-24T03:00:41;95290.09;;;21.39;100.00
12626;BME280;6378;42.684;23.372;2023-07-24T03:03:06;95277.03;;;21.16;100.00
12626;BME280;6378;42.684;23.372;2023-07-24T03:05:34;95279.00;;;21.12;100.00
12626;BME280;6378;42.684;23.372;2023-07-24T03:08:00;95278.09;;;21.26;100.00
12626;BME280;6378;42.684;23.372;2023-07-24T03:10:25;95279.56;;;20.97;100.00
12626;BME280;6378;42.684;23.372;2023-07-24T03:12:51;95278.81;;;20.96;100.00
12626;BME280;6378;42.684;23.372;2023-07-24T03:15:17;95269.69;;;21.06;100.00
12626;BME280;6378;42.684;23.372;2023-07-24T03:17:42;95284.91;;;21.14;100.00
12626;BME280;6378;42.684;23.372;2023-07-24T03:20:18;95274.47;;;20.99;100.00
12626;BME280;6378;42.684;23.372;2023-07-24T03:22:44;95289.81;;;20.89;100.00
12626;BME280;6378;42.684;23.372;2023-07-24T03:25:10;95280.13;;;20.81;100.00
12626;BME280;6378;42.684;23.372;2023-07-24T03:27:35;95282.00;;;20.88;100.00
12626;BME280;6378;42.684;23.372;2023-07-24T03:30:01;95290.47;;;21.00;100.00
12626;BME280;6378;42.684;23.372;2023-07-24T03:32:26;95295.75;;;21.22;100.00
12626;BME280;6378;42.684;23.372;2023-07-24T03:34:52;95290.72;;;21.54;100.00
12626;BME280;6378;42.684;23.372;2023-07-24T03:37:17;95288.53;;;21.72;100.00
12626;BME280;6378;42.684;23.372;2023-07-24T03:39:43;95282.41;;;21.91;100.00
12626;BME280;6378;42.684;23.372;2023-07-24T03:42:11;95285.38;;;22.04;100.00
12626;BME280;6378;42.684;23.372;2023-07-24T03:44:40;95287.28;;;22.11;100.00
12626;BME280;6378;42.684;23.372;2023-07-24T03:47:06;95265.72;;;22.13;100.00
12626;BME280;6378;42.684;23.372;2023-07-24T03:49:31;95286.50;;;22.37;100.00
12626;BME280;6378;42.684;23.372;2023-07-24T03:51:57;95288.63;;;22.53;100.00
12626;BME280;6378;42.684;23.372;2023-07-24T03:54:22;95292.91;;;22.54;100.00
12626;BME280;6378;42.684;23.372;2023-07-24T03:56:48;95289.84;;;22.48;100.00
12626;BME280;6378;42.684;23.372;2023-07-24T03:59:13;95312.56;;;22.22;100.00
12626;BME280;6378;42.684;23.372;2023-07-24T04:01:39;95312.97;;;21.90;100.00
12626;BME280;6378;42.684;23.372;2023-07-24T04:04:04;95303.09;;;21.66;100.00
12626;BME280;6378;42.684;23.372;2023-07-24T04:06:29;95283.13;;;21.65;100.00
12626;BME280;6378;42.684;23.372;2023-07-24T04:08:55;95299.78;;;22.12;100.00
12626;BME280;6378;42.684;23.372;2023-07-24T04:11:20;95297.56;;;22.30;100.00
12626;BME280;6378;42.684;23.372;2023-07-24T04:13:45;95299.88;;;22.58;100.00
12626;BME280;6378;42.684;23.372;2023-07-24T04:16:11;95303.38;;;23.09;100.00
12626;BME280;6378;42.684;23.372;2023-07-24T04:18:36;95295.31;;;23.64;100.00
12626;BME280;6378;42.684;23.372;2023-07-24T04:21:02;95301.53;;;24.04;100.00
12626;BME280;6378;42.684;23.372;2023-07-24T04:23:27;95306.19;;;24.27;100.00
12626;BME280;6378;42.684;23.372;2023-07-24T04:25:52;95299.28;;;24.71;100.00
12626;BME280;6378;42.684;23.372;2023-07-24T04:28:18;95302.66;;;24.95;100.00
12626;BME280;6378;42.684;23.372;2023-07-24T04:30:43;95307.13;;;25.50;100.00
12626;BME280;6378;42.684;23.372;2023-07-24T04:33:08;95315.47;;;25.46;100.00
12626;BME280;6378;42.684;23.372;2023-07-24T04:35:34;95315.78;;;25.94;100.00
12626;BME280;6378;42.684;23.372;2023-07-24T04:37:59;95317.25;;;25.69;100.00
12626;BME280;6378;42.684;23.372;2023-07-24T04:40:24;95316.44;;;25.98;100.00
12626;BME280;6378;42.684;23.372;2023-07-24T04:42:50;95297.06;;;26.14;99.71
12626;BME280;6378;42.684;23.372;2023-07-24T04:45:15;95312.81;;;26.01;100.00
12626;BME280;6378;42.684;23.372;2023-07-24T04:47:41;95303.16;;;26.21;99.40
12626;BME280;6378;42.684;23.372;2023-07-24T04:50:07;95319.84;;;26.43;93.60
12626;BME280;6378;42.684;23.372;2023-07-24T04:52:32;95322.66;;;25.73;100.00
12626;BME280;6378;42.684;23.372;2023-07-24T04:54:58;95318.69;;;25.74;100.00
12626;BME280;6378;42.684;23.372;2023-07-24T04:57:23;95290.50;;;25.95;100.00
12626;BME280;6378;42.684;23.372;2023-07-24T04:59:48;95312.75;;;26.29;100.00
12626;BME280;6378;42.684;23.372;2023-07-24T05:02:14;95301.16;;;26.85;95.28
12626;BME280;6378;42.684;23.372;2023-07-24T05:04:39;95316.09;;;26.62;97.60
12626;BME280;6378;42.684;23.372;2023-07-24T05:07:05;95310.09;;;27.14;92.43
12626;BME280;6378;42.684;23.372;2023-07-24T05:09:30;95314.56;;;27.34;89.59
12626;BME280;6378;42.684;23.372;2023-07-24T05:11:55;95322.41;;;27.35;91.53
12626;BME280;6378;42.684;23.372;2023-07-24T05:14:21;95318.50;;;27.58;87.65
12626;BME280;6378;42.684;23.372;2023-07-24T05:16:46;95320.28;;;26.54;92.77
12626;BME280;6378;42.684;23.372;2023-07-24T05:19:11;95322.09;;;25.65;100.00
12626;BME280;6378;42.684;23.372;2023-07-24T05:21:40;95315.47;;;26.04;100.00
12626;BME280;6378;42.684;23.372;2023-07-24T05:24:11;95307.94;;;25.92;100.00
12626;BME280;6378;42.684;23.372;2023-07-24T05:26:40;95286.47;;;26.76;89.08
12626;BME280;6378;42.684;23.372;2023-07-24T05:29:05;95304.97;;;26.53;88.73
12626;BME280;6378;42.684;23.372;2023-07-24T05:31:30;95315.09;;;27.54;81.18
12626;BME280;6378;42.684;23.372;2023-07-24T05:34:08;95305.72;;;27.39;73.19
12626;BME280;6378;42.684;23.372;2023-07-24T05:36:33;95317.34;;;28.33;69.62
12626;BME280;6378;42.684;23.372;2023-07-24T05:38:59;95318.25;;;29.01;62.07
12626;BME280;6378;42.684;23.372;2023-07-24T05:41:24;95313.25;;;29.36;61.44
12626;BME280;6378;42.684;23.372;2023-07-24T05:43:49;95309.50;;;29.30;61.27
12626;BME280;6378;42.684;23.372;2023-07-24T05:46:15;95285.44;;;29.18;59.62
12626;BME280;6378;42.684;23.372;2023-07-24T05:48:41;95303.22;;;29.57;58.13
12626;BME280;6378;42.684;23.372;2023-07-24T05:51:06;95301.69;;;29.83;56.06
12626;BME280;6378;42.684;23.372;2023-07-24T05:53:37;95301.06;;;29.43;58.55
12626;BME280;6378;42.684;23.372;2023-07-24T05:56:05;95279.84;;;28.72;64.21
12626;BME280;6378;42.684;23.372;2023-07-24T06:01:30;95294.09;;;29.20;63.55
12626;BME280;6378;42.684;23.372;2023-07-24T06:07:30;95287.19;;;29.34;61.23
12626;BME280;6378;42.684;23.372;2023-07-24T06:09:55;95288.91;;;29.67;60.43
12626;BME280;6378;42.684;23.372;2023-07-24T06:12:26;95287.66;;;29.68;60.59
12626;BME280;6378;42.684;23.372;2023-07-24T06:14:58;95278.25;;;29.57;59.22
12626;BME280;6378;42.684;23.372;2023-07-24T06:17:41;95284.44;;;29.43;61.40
12626;BME280;6378;42.684;23.372;2023-07-24T06:21:00;95284.59;;;29.57;60.63
12626;BME280;6378;42.684;23.372;2023-07-24T06:23:31;95278.69;;;29.19;62.25
12626;BME280;6378;42.684;23.372;2023-07-24T06:25:56;95279.59;;;29.07;62.35
12626;BME280;6378;42.684;23.372;2023-07-24T06:28:22;95276.66;;;29.01;60.72
12626;BME280;6378;42.684;23.372;2023-07-24T06:30:47;95291.09;;;29.91;56.63
12626;BME280;6378;42.684;23.372;2023-07-24T06:33:13;95273.59;;;29.08;58.56
12626;BME280;6378;42.684;23.372;2023-07-24T06:35:38;95280.81;;;28.97;58.51
12626;BME280;6378;42.684;23.372;2023-07-24T06:38:04;95273.63;;;29.26;58.42
12626;BME280;6378;42.684;23.372;2023-07-24T06:40:29;95278.06;;;29.06;58.51
12626;BME280;6378;42.684;23.372;2023-07-24T06:42:54;95283.00;;;29.11;57.12
12626;BME280;6378;42.684;23.372;2023-07-24T06:45:20;95282.38;;;29.16;57.54
12626;BME280;6378;42.684;23.372;2023-07-24T06:47:45;95281.50;;;29.83;54.01
12626;BME280;6378;42.684;23.372;2023-07-24T06:50:11;95271.91;;;30.20;52.56
12626;BME280;6378;42.684;23.372;2023-07-24T06:52:36;95280.59;;;30.88;51.17
12626;BME280;6378;42.684;23.372;2023-07-24T06:55:02;95275.41;;;30.30;52.56
12626;BME280;6378;42.684;23.372;2023-07-24T06:57:27;95284.69;;;30.18;53.10
12626;BME280;6378;42.684;23.372;2023-07-24T06:59:52;95281.38;;;30.46;51.99
12626;BME280;6378;42.684;23.372;2023-07-24T07:02:18;95281.06;;;30.53;51.80
12626;BME280;6378;42.684;23.372;2023-07-24T07:04:43;95283.44;;;30.28;52.99
12626;BME280;6378;42.684;23.372;2023-07-24T07:07:09;95288.06;;;30.22;54.74
12626;BME280;6378;42.684;23.372;2023-07-24T07:09:50;95269.22;;;30.35;53.08
12626;BME280;6378;42.684;23.372;2023-07-24T07:12:15;95294.31;;;30.59;51.35
12626;BME280;6378;42.684;23.372;2023-07-24T07:14:41;95288.81;;;30.49;51.79
12626;BME280;6378;42.684;23.372;2023-07-24T07:17:06;95274.56;;;30.57;51.71
12626;BME280;6378;42.684;23.372;2023-07-24T07:19:31;95286.53;;;31.28;50.11
12626;BME280;6378;42.684;23.372;2023-07-24T07:21:57;95288.63;;;30.86;50.43
12626;BME280;6378;42.684;23.372;2023-07-24T07:24:22;95216.81;;;30.84;51.30
12626;BME280;6378;42.684;23.372;2023-07-24T07:26:48;95283.22;;;30.40;53.06
12626;BME280;6378;42.684;23.372;2023-07-24T07:29:14;95274.88;;;29.98;53.08
12626;BME280;6378;42.684;23.372;2023-07-24T07:31:39;95271.13;;;30.62;51.74
12626;BME280;6378;42.684;23.372;2023-07-24T07:34:05;95268.81;;;30.18;51.99
12626;BME280;6378;42.684;23.372;2023-07-24T07:36:30;95259.91;;;30.05;52.59
12626;BME280;6378;42.684;23.372;2023-07-24T07:38:55;95265.56;;;30.10;53.78
12626;BME280;6378;42.684;23.372;2023-07-24T07:41:21;95261.72;;;30.08;52.51
12626;BME280;6378;42.684;23.372;2023-07-24T07:43:46;95260.53;;;30.42;52.47
12626;BME280;6378;42.684;23.372;2023-07-24T07:46:11;95258.00;;;31.19;49.55
12626;BME280;6378;42.684;23.372;2023-07-24T07:48:37;95260.22;;;31.53;46.91
12626;BME280;6378;42.684;23.372;2023-07-24T07:51:02;95263.81;;;31.30;48.04
12626;BME280;6378;42.684;23.372;2023-07-24T07:53:28;95262.78;;;31.18;48.95
12626;BME280;6378;42.684;23.372;2023-07-24T07:55:57;95268.25;;;31.36;48.41
12626;BME280;6378;42.684;23.372;2023-07-24T07:58:23;95267.81;;;30.48;51.62
12626;BME280;6378;42.684;23.372;2023-07-24T08:00:48;95273.34;;;30.81;48.22
12626;BME280;6378;42.684;23.372;2023-07-24T08:03:33;95266.94;;;30.66;46.30
12626;BME280;6378;42.684;23.372;2023-07-24T08:05:59;95256.53;;;31.32;44.64
12626;BME280;6378;42.684;23.372;2023-07-24T08:08:25;95260.00;;;31.18;44.69
12626;BME280;6378;42.684;23.372;2023-07-24T08:10:50;95252.41;;;31.42;45.99
12626;BME280;6378;42.684;23.372;2023-07-24T08:13:16;95250.28;;;30.66;48.40
12626;BME280;6378;42.684;23.372;2023-07-24T08:15:41;95260.28;;;30.73;46.41
12626;BME280;6378;42.684;23.372;2023-07-24T08:18:07;95256.56;;;30.99;44.89
12626;BME280;6378;42.684;23.372;2023-07-24T08:20:35;95241.00;;;31.02;43.68
12626;BME280;6378;42.684;23.372;2023-07-24T08:23:01;95250.66;;;30.83;45.61
12626;BME280;6378;42.684;23.372;2023-07-24T08:25:26;95245.81;;;30.92;44.81
12626;BME280;6378;42.684;23.372;2023-07-24T08:27:51;95247.09;;;30.82;43.97
12626;BME280;6378;42.684;23.372;2023-07-24T08:30:18;95227.94;;;31.32;43.28
12626;BME280;6378;42.684;23.372;2023-07-24T08:32:43;95237.59;;;30.98;44.13
12626;BME280;6378;42.684;23.372;2023-07-24T08:35:09;95230.25;;;31.48;43.64
12626;BME280;6378;42.684;23.372;2023-07-24T08:37:34;95235.72;;;31.66;43.62
12626;BME280;6378;42.684;23.372;2023-07-24T08:40:00;95233.31;;;31.35;43.48
12626;BME280;6378;42.684;23.372;2023-07-24T08:42:26;95227.47;;;31.87;42.61
12626;BME280;6378;42.684;23.372;2023-07-24T08:44:52;95217.69;;;31.62;42.97
12626;BME280;6378;42.684;23.372;2023-07-24T08:47:18;95220.09;;;32.13;41.10
12626;BME280;6378;42.684;23.372;2023-07-24T08:49:46;95219.09;;;32.31;41.17
12626;BME280;6378;42.684;23.372;2023-07-24T08:52:12;95215.78;;;32.12;41.60
12626;BME280;6378;42.684;23.372;2023-07-24T08:54:39;95218.44;;;32.06;39.45
12626;BME280;6378;42.684;23.372;2023-07-24T08:57:07;95216.41;;;31.63;40.73
12626;BME280;6378;42.684;23.372;2023-07-24T08:59:34;95215.19;;;31.78;41.23
12626;BME280;6378;42.684;23.372;2023-07-24T09:01:59;95208.38;;;31.26;41.81
12626;BME280;6378;42.684;23.372;2023-07-24T09:04:25;95214.59;;;32.04;40.14
12626;BME280;6378;42.684;23.372;2023-07-24T09:06:51;95210.84;;;32.21;40.20
12626;BME280;6378;42.684;23.372;2023-07-24T09:09:16;95213.47;;;31.81;41.15
12626;BME280;6378;42.684;23.372;2023-07-24T09:11:50;95209.81;;;32.04;40.67
12626;BME280;6378;42.684;23.372;2023-07-24T09:14:26;95210.75;;;31.87;40.24
12626;BME280;6378;42.684;23.372;2023-07-24T09:17:09;95209.66;;;31.55;42.35
12626;BME280;6378;42.684;23.372;2023-07-24T09:19:35;95199.72;;;31.63;41.15
12626;BME280;6378;42.684;23.372;2023-07-24T09:22:19;95197.13;;;32.03;39.67
12626;BME280;6378;42.684;23.372;2023-07-24T09:24:52;95200.47;;;32.37;39.94
12626;BME280;6378;42.684;23.372;2023-07-24T09:27:18;95194.22;;;32.27;39.83
12626;BME280;6378;42.684;23.372;2023-07-24T09:29:44;95193.94;;;32.75;39.82
12626;BME280;6378;42.684;23.372;2023-07-24T09:32:22;95186.53;;;32.37;37.86
12626;BME280;6378;42.684;23.372;2023-07-24T09:34:51;95152.41;;;32.42;39.84
12626;BME280;6378;42.684;23.372;2023-07-24T09:39:52;95106.38;;;32.11;38.09
12626;BME280;6378;42.684;23.372;2023-07-24T09:42:17;95168.72;;;32.49;39.20
12626;BME280;6378;42.684;23.372;2023-07-24T09:44:43;95159.13;;;32.50;39.37
12626;BME280;6378;42.684;23.372;2023-07-24T09:47:08;95156.75;;;32.98;38.12
12626;BME280;6378;42.684;23.372;2023-07-24T09:49:33;95149.97;;;32.64;37.22
12626;BME280;6378;42.684;23.372;2023-07-24T09:51:59;95153.09;;;32.72;36.77
12626;BME280;6378;42.684;23.372;2023-07-24T09:54:32;95140.47;;;32.76;37.38
12626;BME280;6378;42.684;23.372;2023-07-24T09:57:06;95134.91;;;32.96;37.12
12626;BME280;6378;42.684;23.372;2023-07-24T09:59:34;95140.25;;;33.00;36.56
12626;BME280;6378;42.684;23.372;2023-07-24T10:02:00;95142.50;;;32.96;37.64
12626;BME280;6378;42.684;23.372;2023-07-24T10:04:26;95138.03;;;33.04;36.88
12626;BME280;6378;42.684;23.372;2023-07-24T10:06:53;95110.22;;;32.89;38.05
12626;BME280;6378;42.684;23.372;2023-07-24T10:09:19;95130.22;;;33.08;36.47
12626;BME280;6378;42.684;23.372;2023-07-24T10:11:46;95140.19;;;32.94;36.99
12626;BME280;6378;42.684;23.372;2023-07-24T10:14:12;95111.34;;;32.97;36.78
12626;BME280;6378;42.684;23.372;2023-07-24T10:16:37;95125.53;;;32.99;37.62
12626;BME280;6378;42.684;23.372;2023-07-24T10:19:13;95117.25;;;33.05;36.84
12626;BME280;6378;42.684;23.372;2023-07-24T10:21:45;95097.78;;;33.10;36.98
12626;BME280;6378;42.684;23.372;2023-07-24T10:24:11;95113.13;;;33.21;37.31
12626;BME280;6378;42.684;23.372;2023-07-24T10:26:36;95108.81;;;33.20;37.45
12626;BME280;6378;42.684;23.372;2023-07-24T10:29:02;95107.16;;;33.07;37.66
12626;BME280;6378;42.684;23.372;2023-07-24T10:31:27;95104.88;;;32.86;38.05
12626;BME280;6378;42.684;23.372;2023-07-24T10:33:54;95105.72;;;33.38;38.08
12626;BME280;6378;42.684;23.372;2023-07-24T10:36:21;95103.25;;;33.71;37.43
12626;BME280;6378;42.684;23.372;2023-07-24T10:38:55;95100.00;;;34.10;35.70
12626;BME280;6378;42.684;23.372;2023-07-24T10:41:21;95088.28;;;34.06;36.82
12626;BME280;6378;42.684;23.372;2023-07-24T10:43:49;95090.69;;;33.61;35.40
12626;BME280;6378;42.684;23.372;2023-07-24T10:46:16;95087.09;;;33.55;35.64
12626;BME280;6378;42.684;23.372;2023-07-24T10:48:47;95094.91;;;33.51;35.47
12626;BME280;6378;42.684;23.372;2023-07-24T10:51:14;95093.63;;;33.78;35.83
12626;BME280;6378;42.684;23.372;2023-07-24T10:53:50;95075.97;;;33.86;35.19
12626;BME280;6378;42.684;23.372;2023-07-24T10:56:16;95088.19;;;33.94;36.22
12626;BME280;6378;42.684;23.372;2023-07-24T10:58:42;95079.78;;;33.89;36.48
12626;BME280;6378;42.684;23.372;2023-07-24T11:01:14;95077.28;;;33.97;35.58
12626;BME280;6378;42.684;23.372;2023-07-24T11:03:42;95077.03;;;33.94;37.11
12626;BME280;6378;42.684;23.372;2023-07-24T11:06:15;95068.25;;;33.76;37.05
12626;BME280;6378;42.684;23.372;2023-07-24T11:08:41;95073.88;;;33.81;37.73
12626;BME280;6378;42.684;23.372;2023-07-24T11:11:08;95000.91;;;32.85;38.75
12626;BME280;6378;42.684;23.372;2023-07-24T11:13:34;95032.53;;;33.23;39.63
12626;BME280;6378;42.684;23.372;2023-07-24T11:16:07;95054.41;;;33.61;39.04
12626;BME280;6378;42.684;23.372;2023-07-24T11:18:43;95065.00;;;33.83;38.81
12626;BME280;6378;42.684;23.372;2023-07-24T11:21:11;95050.78;;;33.81;37.93
12626;BME280;6378;42.684;23.372;2023-07-24T11:23:37;95063.78;;;33.89;38.46
12626;BME280;6378;42.684;23.372;2023-07-24T11:26:05;95049.81;;;33.58;38.92
12626;BME280;6378;42.684;23.372;2023-07-24T11:28:39;95040.59;;;33.46;40.55
12626;BME280;6378;42.684;23.372;2023-07-24T11:31:05;95045.94;;;33.50;40.59
12626;BME280;6378;42.684;23.372;2023-07-24T11:33:31;95049.63;;;33.36;39.78
12626;BME280;6378;42.684;23.372;2023-07-24T11:35:57;95042.84;;;33.42;39.87
12626;BME280;6378;42.684;23.372;2023-07-24T11:38:22;95037.63;;;33.56;39.54
12626;BME280;6378;42.684;23.372;2023-07-24T11:40:49;95010.22;;;33.60;40.69
12626;BME280;6378;42.684;23.372;2023-07-24T11:43:20;95025.53;;;34.07;39.80
12626;BME280;6378;42.684;23.372;2023-07-24T11:45:47;95028.94;;;34.22;39.28
12626;BME280;6378;42.684;23.372;2023-07-24T11:48:14;95019.34;;;34.28;34.22
12626;BME280;6378;42.684;23.372;2023-07-24T11:50:56;95027.16;;;34.19;34.57
12626;BME280;6378;42.684;23.372;2023-07-24T11:53:25;95009.63;;;34.18;34.61
12626;BME280;6378;42.684;23.372;2023-07-24T11:55:52;95021.09;;;34.26;35.26
12626;BME280;6378;42.684;23.372;2023-07-24T11:58:18;95012.31;;;34.55;34.85
12626;BME280;6378;42.684;23.372;2023-07-24T12:00:45;94958.44;;;34.49;34.14
12626;BME280;6378;42.684;23.372;2023-07-24T12:03:10;95013.63;;;34.54;34.83
12626;BME280;6378;42.684;23.372;2023-07-24T12:05:43;95008.69;;;34.32;35.06
12626;BME280;6378;42.684;23.372;2023-07-24T12:08:09;95012.22;;;34.27;34.98
12626;BME280;6378;42.684;23.372;2023-07-24T12:10:37;95019.63;;;34.30;36.27
12626;BME280;6378;42.684;23.372;2023-07-24T12:13:03;95009.53;;;34.55;35.55
12626;BME280;6378;42.684;23.372;2023-07-24T12:15:28;95002.09;;;34.35;35.45
12626;BME280;6378;42.684;23.372;2023-07-24T12:17:54;94983.47;;;34.21;35.53
12626;BME280;6378;42.684;23.372;2023-07-24T12:20:19;95007.59;;;34.19;35.81
12626;BME280;6378;42.684;23.372;2023-07-24T12:22:45;95002.63;;;34.40;36.23
12626;BME280;6378;42.684;23.372;2023-07-24T12:25:10;94999.34;;;34.47;35.91
12626;BME280;6378;42.684;23.372;2023-07-24T12:27:35;94998.53;;;34.41;34.75
12626;BME280;6378;42.684;23.372;2023-07-24T12:30:02;95003.63;;;34.36;36.24
12626;BME280;6378;42.684;23.372;2023-07-24T12:32:28;94999.31;;;34.41;35.98
12626;BME280;6378;42.684;23.372;2023-07-24T12:34:53;94996.31;;;34.02;35.68
12626;BME280;6378;42.684;23.372;2023-07-24T12:37:19;94992.56;;;34.16;35.52
12626;BME280;6378;42.684;23.372;2023-07-24T12:39:45;94986.84;;;34.36;35.64
12626;BME280;6378;42.684;23.372;2023-07-24T12:42:11;94992.53;;;34.59;35.16
12626;BME280;6378;42.684;23.372;2023-07-24T12:44:37;94986.25;;;34.81;35.39
12626;BME280;6378;42.684;23.372;2023-07-24T12:47:04;94967.72;;;34.89;34.79
12626;BME280;6378;42.684;23.372;2023-07-24T12:49:29;94980.94;;;34.99;33.48
12626;BME280;6378;42.684;23.372;2023-07-24T12:51:55;94978.94;;;35.16;32.23
12626;BME280;6378;42.684;23.372;2023-07-24T12:54:20;94982.00;;;35.24;32.54
12626;BME280;6378;42.684;23.372;2023-07-24T12:56:47;94983.28;;;35.45;32.23
12626;BME280;6378;42.684;23.372;2023-07-24T12:59:12;94979.72;;;35.39;32.80
12626;BME280;6378;42.684;23.372;2023-07-24T13:01:38;94971.28;;;35.06;33.48
12626;BME280;6378;42.684;23.372;2023-07-24T13:04:03;94969.75;;;34.99;34.76
12626;BME280;6378;42.684;23.372;2023-07-24T13:06:28;94967.44;;;34.81;33.66
12626;BME280;6378;42.684;23.372;2023-07-24T13:08:54;94973.97;;;34.61;33.98